sensor_id;sensor_type;location;lat;lon;timestamp;P1;durP1;ratioP1;P2;durP2;ratioP2
40981;SDS011;26708;50.304;19.028;2022-07-03T00:02:47;10.30;;;6.82;;
40981;SDS011;26708;50.304;19.028;2022-07-03T00:05:48;7.97;;;6.38;;
40981;SDS011;26708;50.304;19.028;2022-07-03T00:08:49;15.27;;;8.82;;
40981;SDS011;26708;50.304;19.028;2022-07-03T00:11:50;12.93;;;8.07;;
40981;SDS011;26708;50.304;19.028;2022-07-03T00:14:51;13.88;;;9.70;;
40981;SDS011;26708;50.304;19.028;2022-07-03T00:17:52;14.20;;;8.93;;
40981;SDS011;26708;50.304;19.028;2022-07-03T00:21:02;12.02;;;7.80;;
40981;SDS011;26708;50.304;19.028;2022-07-03T00:24:08;11.10;;;7.63;;
40981;SDS011;26708;50.304;19.028;2022-07-03T00:27:14;12.40;;;8.02;;
40981;SDS011;26708;50.304;19.028;2022-07-03T00:30:15;10.88;;;7.03;;
40981;SDS011;26708;50.304;19.028;2022-07-03T00:33:16;11.77;;;7.68;;
40981;SDS011;26708;50.304;19.028;2022-07-03T00:36:18;10.80;;;7.25;;
40981;SDS011;26708;50.304;19.028;2022-07-03T00:39:20;15.63;;;7.40;;
40981;SDS011;26708;50.304;19.028;2022-07-03T00:42:20;12.93;;;6.70;;
40981;SDS011;26708;50.304;19.028;2022-07-03T00:45:21;12.52;;;6.97;;
40981;SDS011;26708;50.304;19.028;2022-07-03T00:48:22;11.32;;;6.80;;
40981;SDS011;26708;50.304;19.028;2022-07-03T00:51:27;10.77;;;6.95;;
40981;SDS011;26708;50.304;19.028;2022-07-03T00:54:29;12.32;;;7.63;;
40981;SDS011;26708;50.304;19.028;2022-07-03T00:57:33;11.68;;;7.05;;
40981;SDS011;26708;50.304;19.028;2022-07-03T01:00:39;14.10;;;7.60;;
40981;SDS011;26708;50.304;19.028;2022-07-03T01:03:41;9.15;;;6.78;;
40981;SDS011;26708;50.304;19.028;2022-07-03T01:13:38;10.65;;;7.10;;
40981;SDS011;26708;50.304;19.028;2022-07-03T01:20:01;10.88;;;6.18;;
40981;SDS011;26708;50.304;19.028;2022-07-03T01:23:03;10.73;;;6.45;;
40981;SDS011;26708;50.304;19.028;2022-07-03T01:26:20;8.52;;;6.45;;
40981;SDS011;26708;50.304;19.028;2022-07-03T01:29:30;14.73;;;7.10;;
40981;SDS011;26708;50.304;19.028;2022-07-03T01:32:43;10.57;;;6.85;;
40981;SDS011;26708;50.304;19.028;2022-07-03T01:36:04;12.68;;;7.25;;
40981;SDS011;26708;50.304;19.028;2022-07-03T01:39:06;10.98;;;7.03;;
40981;SDS011;26708;50.304;19.028;2022-07-03T01:42:10;8.93;;;6.80;;
40981;SDS011;26708;50.304;19.028;2022-07-03T01:45:13;10.90;;;6.60;;
40981;SDS011;26708;50.304;19.028;2022-07-03T01:48:15;11.95;;;6.90;;
40981;SDS011;26708;50.304;19.028;2022-07-03T01:51:16;11.93;;;7.13;;
40981;SDS011;26708;50.304;19.028;2022-07-03T01:54:18;10.20;;;5.95;;
40981;SDS011;26708;50.304;19.028;2022-07-03T01:57:20;10.05;;;6.80;;
40981;SDS011;26708;50.304;19.028;2022-07-03T02:00:25;10.77;;;6.82;;
40981;SDS011;26708;50.304;19.028;2022-07-03T02:03:27;11.63;;;6.55;;
40981;SDS011;26708;50.304;19.028;2022-07-03T02:09:36;10.95;;;6.68;;
40981;SDS011;26708;50.304;19.028;2022-07-03T02:12:48;14.45;;;8.95;;
40981;SDS011;26708;50.304;19.028;2022-07-03T02:15:50;20.75;;;12.23;;
40981;SDS011;26708;50.304;19.028;2022-07-03T02:19:14;13.35;;;8.35;;
40981;SDS011;26708;50.304;19.028;2022-07-03T02:22:14;9.52;;;7.30;;
40981;SDS011;26708;50.304;19.028;2022-07-03T02:25:23;12.25;;;7.55;;
40981;SDS011;26708;50.304;19.028;2022-07-03T02:28:49;12.25;;;6.45;;
40981;SDS011;26708;50.304;19.028;2022-07-03T02:31:57;11.20;;;6.35;;
40981;SDS011;26708;50.304;19.028;2022-07-03T02:35:02;8.88;;;6.60;;
40981;SDS011;26708;50.304;19.028;2022-07-03T02:38:15;7.70;;;6.15;;
40981;SDS011;26708;50.304;19.028;2022-07-03T02:41:18;8.65;;;6.07;;
40981;SDS011;26708;50.304;19.028;2022-07-03T02:44:28;9.32;;;5.88;;
40981;SDS011;26708;50.304;19.028;2022-07-03T02:47:43;8.13;;;6.00;;
40981;SDS011;26708;50.304;19.028;2022-07-03T02:50:50;9.73;;;6.20;;
40981;SDS011;26708;50.304;19.028;2022-07-03T02:53:59;9.20;;;6.40;;
40981;SDS011;26708;50.304;19.028;2022-07-03T02:57:09;7.65;;;6.20;;
40981;SDS011;26708;50.304;19.028;2022-07-03T03:00:10;9.98;;;6.45;;
40981;SDS011;26708;50.304;19.028;2022-07-03T03:03:12;14.05;;;6.35;;
40981;SDS011;26708;50.304;19.028;2022-07-03T03:06:13;10.30;;;6.40;;
40981;SDS011;26708;50.304;19.028;2022-07-03T03:09:19;12.43;;;7.00;;
40981;SDS011;26708;50.304;19.028;2022-07-03T03:12:36;8.75;;;5.85;;
40981;SDS011;26708;50.304;19.028;2022-07-03T03:15:38;10.88;;;5.70;;
40981;SDS011;26708;50.304;19.028;2022-07-03T03:18:44;12.15;;;6.47;;
40981;SDS011;26708;50.304;19.028;2022-07-03T03:22:06;9.60;;;6.65;;
40981;SDS011;26708;50.304;19.028;2022-07-03T03:25:15;9.35;;;6.47;;
40981;SDS011;26708;50.304;19.028;2022-07-03T03:28:16;13.20;;;6.28;;
40981;SDS011;26708;50.304;19.028;2022-07-03T03:31:17;11.30;;;7.07;;
40981;SDS011;26708;50.304;19.028;2022-07-03T03:34:19;10.45;;;6.75;;
40981;SDS011;26708;50.304;19.028;2022-07-03T03:37:21;12.65;;;6.30;;
40981;SDS011;26708;50.304;19.028;2022-07-03T03:40:22;8.52;;;6.28;;
40981;SDS011;26708;50.304;19.028;2022-07-03T03:43:22;8.23;;;6.03;;
40981;SDS011;26708;50.304;19.028;2022-07-03T03:46:23;6.90;;;5.82;;
40981;SDS011;26708;50.304;19.028;2022-07-03T03:49:23;7.88;;;6.28;;
40981;SDS011;26708;50.304;19.028;2022-07-03T03:52:24;9.27;;;6.35;;
40981;SDS011;26708;50.304;19.028;2022-07-03T03:55:25;7.60;;;5.90;;
40981;SDS011;26708;50.304;19.028;2022-07-03T03:58:26;9.98;;;5.93;;
40981;SDS011;26708;50.304;19.028;2022-07-03T04:01:30;7.47;;;6.22;;
40981;SDS011;26708;50.304;19.028;2022-07-03T04:04:31;11.52;;;6.38;;
40981;SDS011;26708;50.304;19.028;2022-07-03T04:07:32;8.38;;;5.93;;
40981;SDS011;26708;50.304;19.028;2022-07-03T04:10:32;9.50;;;6.43;;
40981;SDS011;26708;50.304;19.028;2022-07-03T04:13:33;9.15;;;6.10;;
40981;SDS011;26708;50.304;19.028;2022-07-03T04:16:34;10.30;;;6.80;;
40981;SDS011;26708;50.304;19.028;2022-07-03T04:19:35;9.20;;;6.35;;
40981;SDS011;26708;50.304;19.028;2022-07-03T04:22:36;9.93;;;6.30;;
40981;SDS011;26708;50.304;19.028;2022-07-03T04:25:37;9.25;;;6.15;;
40981;SDS011;26708;50.304;19.028;2022-07-03T04:28:37;8.52;;;6.30;;
40981;SDS011;26708;50.304;19.028;2022-07-03T04:31:40;10.27;;;5.95;;
40981;SDS011;26708;50.304;19.028;2022-07-03T04:34:41;9.63;;;6.28;;
40981;SDS011;26708;50.304;19.028;2022-07-03T04:37:42;8.82;;;5.85;;
40981;SDS011;26708;50.304;19.028;2022-07-03T04:40:43;9.85;;;6.50;;
40981;SDS011;26708;50.304;19.028;2022-07-03T04:43:44;10.60;;;6.90;;
40981;SDS011;26708;50.304;19.028;2022-07-03T04:46:44;8.43;;;6.03;;
40981;SDS011;26708;50.304;19.028;2022-07-03T04:49:45;7.35;;;5.45;;
40981;SDS011;26708;50.304;19.028;2022-07-03T04:52:46;10.40;;;6.10;;
40981;SDS011;26708;50.304;19.028;2022-07-03T04:55:47;9.98;;;6.00;;
40981;SDS011;26708;50.304;19.028;2022-07-03T04:58:47;9.93;;;6.20;;
40981;SDS011;26708;50.304;19.028;2022-07-03T05:01:48;12.18;;;6.50;;
40981;SDS011;26708;50.304;19.028;2022-07-03T05:04:49;13.30;;;6.78;;
40981;SDS011;26708;50.304;19.028;2022-07-03T05:07:50;10.23;;;6.55;;
40981;SDS011;26708;50.304;19.028;2022-07-03T05:10:51;13.57;;;6.47;;
40981;SDS011;26708;50.304;19.028;2022-07-03T05:13:52;8.57;;;6.40;;
40981;SDS011;26708;50.304;19.028;2022-07-03T05:16:52;9.35;;;6.30;;
40981;SDS011;26708;50.304;19.028;2022-07-03T05:19:53;11.55;;;7.10;;
40981;SDS011;26708;50.304;19.028;2022-07-03T05:23:14;9.10;;;6.20;;
40981;SDS011;26708;50.304;19.028;2022-07-03T05:26:14;9.02;;;5.97;;
40981;SDS011;26708;50.304;19.028;2022-07-03T05:29:15;8.23;;;6.07;;
40981;SDS011;26708;50.304;19.028;2022-07-03T05:32:16;9.38;;;6.28;;
40981;SDS011;26708;50.304;19.028;2022-07-03T05:35:17;9.13;;;5.90;;
40981;SDS011;26708;50.304;19.028;2022-07-03T05:38:18;7.88;;;5.90;;
40981;SDS011;26708;50.304;19.028;2022-07-03T05:41:39;9.40;;;6.00;;
40981;SDS011;26708;50.304;19.028;2022-07-03T05:44:39;10.73;;;5.63;;
40981;SDS011;26708;50.304;19.028;2022-07-03T05:47:40;10.48;;;5.90;;
40981;SDS011;26708;50.304;19.028;2022-07-03T05:50:41;9.25;;;5.97;;
40981;SDS011;26708;50.304;19.028;2022-07-03T05:53:42;9.48;;;6.07;;
40981;SDS011;26708;50.304;19.028;2022-07-03T05:56:42;9.77;;;6.18;;
40981;SDS011;26708;50.304;19.028;2022-07-03T05:59:43;10.73;;;5.60;;
40981;SDS011;26708;50.304;19.028;2022-07-03T06:02:44;8.02;;;5.88;;
40981;SDS011;26708;50.304;19.028;2022-07-03T06:05:44;8.18;;;5.82;;
40981;SDS011;26708;50.304;19.028;2022-07-03T06:08:45;7.93;;;6.05;;
40981;SDS011;26708;50.304;19.028;2022-07-03T06:11:46;10.13;;;7.20;;
40981;SDS011;26708;50.304;19.028;2022-07-03T06:14:48;9.27;;;6.57;;
40981;SDS011;26708;50.304;19.028;2022-07-03T06:17:48;8.35;;;6.18;;
40981;SDS011;26708;50.304;19.028;2022-07-03T06:20:49;9.95;;;7.00;;
40981;SDS011;26708;50.304;19.028;2022-07-03T06:23:51;8.40;;;6.30;;
40981;SDS011;26708;50.304;19.028;2022-07-03T06:26:52;10.73;;;6.35;;
40981;SDS011;26708;50.304;19.028;2022-07-03T06:29:52;6.60;;;5.70;;
40981;SDS011;26708;50.304;19.028;2022-07-03T06:32:53;10.50;;;6.03;;
40981;SDS011;26708;50.304;19.028;2022-07-03T06:35:54;8.07;;;6.70;;
40981;SDS011;26708;50.304;19.028;2022-07-03T06:38:55;7.72;;;6.30;;
40981;SDS011;26708;50.304;19.028;2022-07-03T06:41:55;10.30;;;6.35;;
40981;SDS011;26708;50.304;19.028;2022-07-03T06:44:56;8.15;;;6.10;;
40981;SDS011;26708;50.304;19.028;2022-07-03T06:47:57;6.88;;;5.70;;
40981;SDS011;26708;50.304;19.028;2022-07-03T06:50:58;6.97;;;5.68;;
40981;SDS011;26708;50.304;19.028;2022-07-03T06:53:58;8.45;;;6.20;;
40981;SDS011;26708;50.304;19.028;2022-07-03T06:57:00;8.00;;;5.43;;
40981;SDS011;26708;50.304;19.028;2022-07-03T07:00:00;6.25;;;5.30;;
40981;SDS011;26708;50.304;19.028;2022-07-03T07:03:01;7.30;;;5.90;;
40981;SDS011;26708;50.304;19.028;2022-07-03T07:06:02;8.57;;;6.28;;
40981;SDS011;26708;50.304;19.028;2022-07-03T07:09:03;9.35;;;7.13;;
40981;SDS011;26708;50.304;19.028;2022-07-03T07:12:05;8.05;;;5.43;;
40981;SDS011;26708;50.304;19.028;2022-07-03T07:15:06;7.60;;;5.38;;
40981;SDS011;26708;50.304;19.028;2022-07-03T07:18:07;5.80;;;4.78;;
40981;SDS011;26708;50.304;19.028;2022-07-03T07:21:08;7.78;;;5.00;;
40981;SDS011;26708;50.304;19.028;2022-07-03T07:24:09;5.47;;;4.00;;
40981;SDS011;26708;50.304;19.028;2022-07-03T07:27:13;5.95;;;4.30;;
40981;SDS011;26708;50.304;19.028;2022-07-03T07:30:13;4.30;;;3.90;;
40981;SDS011;26708;50.304;19.028;2022-07-03T07:33:14;5.38;;;4.22;;
40981;SDS011;26708;50.304;19.028;2022-07-03T07:36:15;4.10;;;3.70;;
40981;SDS011;26708;50.304;19.028;2022-07-03T07:39:16;4.40;;;3.42;;
40981;SDS011;26708;50.304;19.028;2022-07-03T07:42:17;4.85;;;3.42;;
40981;SDS011;26708;50.304;19.028;2022-07-03T07:45:17;5.15;;;3.75;;
40981;SDS011;26708;50.304;19.028;2022-07-03T07:48:19;4.30;;;3.90;;
40981;SDS011;26708;50.304;19.028;2022-07-03T07:51:20;5.13;;;3.55;;
40981;SDS011;26708;50.304;19.028;2022-07-03T07:54:20;8.40;;;4.00;;
40981;SDS011;26708;50.304;19.028;2022-07-03T07:57:21;5.22;;;3.95;;
40981;SDS011;26708;50.304;19.028;2022-07-03T08:00:22;5.53;;;3.88;;
40981;SDS011;26708;50.304;19.028;2022-07-03T08:03:23;4.68;;;3.88;;
40981;SDS011;26708;50.304;19.028;2022-07-03T08:06:42;4.90;;;3.78;;
40981;SDS011;26708;50.304;19.028;2022-07-03T08:09:43;6.97;;;4.53;;
40981;SDS011;26708;50.304;19.028;2022-07-03T08:12:44;5.85;;;3.90;;
40981;SDS011;26708;50.304;19.028;2022-07-03T08:15:45;4.63;;;3.72;;
40981;SDS011;26708;50.304;19.028;2022-07-03T08:18:47;5.88;;;3.53;;
40981;SDS011;26708;50.304;19.028;2022-07-03T08:21:48;5.65;;;3.60;;
40981;SDS011;26708;50.304;19.028;2022-07-03T08:24:49;5.25;;;2.90;;
40981;SDS011;26708;50.304;19.028;2022-07-03T08:27:49;4.15;;;3.08;;
40981;SDS011;26708;50.304;19.028;2022-07-03T08:30:50;3.53;;;3.10;;
40981;SDS011;26708;50.304;19.028;2022-07-03T08:33:51;5.25;;;3.13;;
40981;SDS011;26708;50.304;19.028;2022-07-03T08:36:52;4.15;;;3.38;;
40981;SDS011;26708;50.304;19.028;2022-07-03T08:39:52;9.98;;;4.75;;
40981;SDS011;26708;50.304;19.028;2022-07-03T08:42:54;7.15;;;3.83;;
40981;SDS011;26708;50.304;19.028;2022-07-03T08:45:58;7.13;;;3.67;;
40981;SDS011;26708;50.304;19.028;2022-07-03T08:49:00;7.30;;;4.30;;
40981;SDS011;26708;50.304;19.028;2022-07-03T08:52:02;7.18;;;4.07;;
40981;SDS011;26708;50.304;19.028;2022-07-03T08:55:08;7.20;;;4.07;;
40981;SDS011;26708;50.304;19.028;2022-07-03T08:58:11;7.97;;;4.15;;
40981;SDS011;26708;50.304;19.028;2022-07-03T09:01:16;5.28;;;3.75;;
40981;SDS011;26708;50.304;19.028;2022-07-03T09:04:18;6.40;;;3.75;;
40981;SDS011;26708;50.304;19.028;2022-07-03T09:07:19;7.10;;;3.72;;
40981;SDS011;26708;50.304;19.028;2022-07-03T09:10:21;6.75;;;4.00;;
40981;SDS011;26708;50.304;19.028;2022-07-03T09:13:21;5.55;;;3.60;;
40981;SDS011;26708;50.304;19.028;2022-07-03T09:16:22;4.35;;;3.08;;
40981;SDS011;26708;50.304;19.028;2022-07-03T09:19:42;6.35;;;3.72;;
40981;SDS011;26708;50.304;19.028;2022-07-03T09:22:44;6.05;;;3.35;;
40981;SDS011;26708;50.304;19.028;2022-07-03T09:25:55;6.03;;;3.00;;
40981;SDS011;26708;50.304;19.028;2022-07-03T09:28:56;3.90;;;3.10;;
40981;SDS011;26708;50.304;19.028;2022-07-03T09:31:57;5.45;;;3.10;;
40981;SDS011;26708;50.304;19.028;2022-07-03T09:35:17;4.20;;;3.45;;
40981;SDS011;26708;50.304;19.028;2022-07-03T09:38:20;5.18;;;3.40;;
40981;SDS011;26708;50.304;19.028;2022-07-03T09:41:21;5.28;;;3.38;;
40981;SDS011;26708;50.304;19.028;2022-07-03T09:47:29;3.58;;;3.05;;
40981;SDS011;26708;50.304;19.028;2022-07-03T09:50:31;5.03;;;2.90;;
40981;SDS011;26708;50.304;19.028;2022-07-03T09:53:42;5.15;;;3.28;;
40981;SDS011;26708;50.304;19.028;2022-07-03T09:56:44;6.30;;;3.42;;
40981;SDS011;26708;50.304;19.028;2022-07-03T09:59:44;3.83;;;3.35;;
40981;SDS011;26708;50.304;19.028;2022-07-03T10:02:59;4.80;;;3.65;;
40981;SDS011;26708;50.304;19.028;2022-07-03T10:06:03;5.10;;;3.58;;
40981;SDS011;26708;50.304;19.028;2022-07-03T10:09:04;3.85;;;3.20;;
40981;SDS011;26708;50.304;19.028;2022-07-03T10:12:06;4.35;;;3.45;;
40981;SDS011;26708;50.304;19.028;2022-07-03T10:15:07;4.93;;;3.38;;
40981;SDS011;26708;50.304;19.028;2022-07-03T10:18:09;5.43;;;3.85;;
40981;SDS011;26708;50.304;19.028;2022-07-03T10:21:11;9.20;;;3.95;;
40981;SDS011;26708;50.304;19.028;2022-07-03T10:24:13;4.05;;;3.50;;
40981;SDS011;26708;50.304;19.028;2022-07-03T10:27:16;6.55;;;3.72;;
40981;SDS011;26708;50.304;19.028;2022-07-03T10:30:18;6.95;;;4.13;;
40981;SDS011;26708;50.304;19.028;2022-07-03T10:33:21;4.70;;;4.00;;
40981;SDS011;26708;50.304;19.028;2022-07-03T10:36:23;5.93;;;3.63;;
40981;SDS011;26708;50.304;19.028;2022-07-03T10:43:28;7.40;;;3.97;;
40981;SDS011;26708;50.304;19.028;2022-07-03T10:46:53;4.70;;;3.85;;
40981;SDS011;26708;50.304;19.028;2022-07-03T10:50:00;8.68;;;3.72;;
40981;SDS011;26708;50.304;19.028;2022-07-03T10:56:24;23.00;;;5.35;;
40981;SDS011;26708;50.304;19.028;2022-07-03T11:05:41;5.07;;;3.45;;
40981;SDS011;26708;50.304;19.028;2022-07-03T11:09:01;5.03;;;3.67;;
40981;SDS011;26708;50.304;19.028;2022-07-03T11:12:03;6.35;;;4.18;;
40981;SDS011;26708;50.304;19.028;2022-07-03T11:18:30;5.72;;;3.65;;
40981;SDS011;26708;50.304;19.028;2022-07-03T11:21:33;5.85;;;4.20;;
40981;SDS011;26708;50.304;19.028;2022-07-03T11:24:44;4.97;;;4.05;;
40981;SDS011;26708;50.304;19.028;2022-07-03T11:27:45;6.60;;;3.83;;
40981;SDS011;26708;50.304;19.028;2022-07-03T11:34:10;4.72;;;3.75;;
40981;SDS011;26708;50.304;19.028;2022-07-03T11:37:20;9.48;;;4.28;;
40981;SDS011;26708;50.304;19.028;2022-07-03T11:40:20;5.45;;;3.90;;
40981;SDS011;26708;50.304;19.028;2022-07-03T11:43:28;6.70;;;3.80;;
40981;SDS011;26708;50.304;19.028;2022-07-03T11:46:30;4.82;;;4.22;;
40981;SDS011;26708;50.304;19.028;2022-07-03T11:49:32;7.68;;;4.20;;
40981;SDS011;26708;50.304;19.028;2022-07-03T11:52:34;8.55;;;4.10;;
40981;SDS011;26708;50.304;19.028;2022-07-03T11:55:45;6.03;;;4.05;;
40981;SDS011;26708;50.304;19.028;2022-07-03T11:58:53;6.22;;;4.40;;
40981;SDS011;26708;50.304;19.028;2022-07-03T12:02:00;4.47;;;4.05;;
40981;SDS011;26708;50.304;19.028;2022-07-03T12:05:12;5.60;;;3.75;;
40981;SDS011;26708;50.304;19.028;2022-07-03T12:08:14;5.30;;;4.40;;
40981;SDS011;26708;50.304;19.028;2022-07-03T12:11:21;5.57;;;4.10;;
40981;SDS011;26708;50.304;19.028;2022-07-03T12:17:43;4.97;;;4.25;;
40981;SDS011;26708;50.304;19.028;2022-07-03T12:20:44;6.25;;;4.07;;
40981;SDS011;26708;50.304;19.028;2022-07-03T12:23:53;5.75;;;4.30;;
40981;SDS011;26708;50.304;19.028;2022-07-03T12:26:55;8.68;;;4.75;;
40981;SDS011;26708;50.304;19.028;2022-07-03T12:29:56;7.22;;;4.07;;
40981;SDS011;26708;50.304;19.028;2022-07-03T12:32:57;5.60;;;3.95;;
40981;SDS011;26708;50.304;19.028;2022-07-03T12:36:02;6.22;;;4.05;;
40981;SDS011;26708;50.304;19.028;2022-07-03T12:39:07;4.30;;;3.83;;
40981;SDS011;26708;50.304;19.028;2022-07-03T12:42:17;5.78;;;3.40;;
40981;SDS011;26708;50.304;19.028;2022-07-03T12:45:23;5.97;;;3.72;;
40981;SDS011;26708;50.304;19.028;2022-07-03T12:53:29;4.75;;;3.45;;
40981;SDS011;26708;50.304;19.028;2022-07-03T12:56:30;7.15;;;4.45;;
40981;SDS011;26708;50.304;19.028;2022-07-03T12:59:31;5.38;;;3.92;;
40981;SDS011;26708;50.304;19.028;2022-07-03T13:02:35;6.15;;;4.18;;
40981;SDS011;26708;50.304;19.028;2022-07-03T13:05:42;4.82;;;3.42;;
40981;SDS011;26708;50.304;19.028;2022-07-03T13:08:56;6.18;;;3.85;;
40981;SDS011;26708;50.304;19.028;2022-07-03T13:12:01;4.10;;;3.70;;
40981;SDS011;26708;50.304;19.028;2022-07-03T13:15:03;5.32;;;3.65;;
40981;SDS011;26708;50.304;19.028;2022-07-03T13:18:11;5.45;;;3.78;;
40981;SDS011;26708;50.304;19.028;2022-07-03T13:21:12;7.63;;;3.87;;
40981;SDS011;26708;50.304;19.028;2022-07-03T13:24:13;6.32;;;3.92;;
40981;SDS011;26708;50.304;19.028;2022-07-03T13:27:15;5.78;;;3.90;;
40981;SDS011;26708;50.304;19.028;2022-07-03T13:30:17;6.88;;;3.88;;
40981;SDS011;26708;50.304;19.028;2022-07-03T13:33:19;4.07;;;3.65;;
40981;SDS011;26708;50.304;19.028;2022-07-03T13:36:20;5.20;;;4.22;;
40981;SDS011;26708;50.304;19.028;2022-07-03T13:39:21;7.82;;;3.75;;
40981;SDS011;26708;50.304;19.028;2022-07-03T13:42:21;4.07;;;3.67;;
40981;SDS011;26708;50.304;19.028;2022-07-03T13:45:22;5.82;;;3.72;;
40981;SDS011;26708;50.304;19.028;2022-07-03T13:48:23;5.45;;;3.90;;
40981;SDS011;26708;50.304;19.028;2022-07-03T13:51:24;5.22;;;4.13;;
40981;SDS011;26708;50.304;19.028;2022-07-03T13:54:25;6.03;;;4.05;;
40981;SDS011;26708;50.304;19.028;2022-07-03T13:57:25;4.88;;;4.13;;
40981;SDS011;26708;50.304;19.028;2022-07-03T14:00:26;5.03;;;3.50;;
40981;SDS011;26708;50.304;19.028;2022-07-03T14:03:27;6.30;;;3.88;;
40981;SDS011;26708;50.304;19.028;2022-07-03T14:06:28;7.25;;;4.68;;
40981;SDS011;26708;50.304;19.028;2022-07-03T14:09:29;4.03;;;3.60;;
40981;SDS011;26708;50.304;19.028;2022-07-03T14:12:30;5.40;;;3.65;;
40981;SDS011;26708;50.304;19.028;2022-07-03T14:15:30;6.60;;;4.18;;
40981;SDS011;26708;50.304;19.028;2022-07-03T14:18:32;7.88;;;5.18;;
40981;SDS011;26708;50.304;19.028;2022-07-03T14:21:34;8.65;;;4.30;;
40981;SDS011;26708;50.304;19.028;2022-07-03T14:24:36;5.93;;;3.60;;
40981;SDS011;26708;50.304;19.028;2022-07-03T14:27:36;4.40;;;3.70;;
40981;SDS011;26708;50.304;19.028;2022-07-03T14:30:55;5.88;;;3.95;;
40981;SDS011;26708;50.304;19.028;2022-07-03T14:34:35;6.55;;;3.92;;
40981;SDS011;26708;50.304;19.028;2022-07-03T14:37:35;4.50;;;3.78;;
40981;SDS011;26708;50.304;19.028;2022-07-03T14:40:36;6.90;;;3.97;;
40981;SDS011;26708;50.304;19.028;2022-07-03T14:43:37;6.07;;;4.55;;
40981;SDS011;26708;50.304;19.028;2022-07-03T14:46:38;7.97;;;4.40;;
40981;SDS011;26708;50.304;19.028;2022-07-03T14:49:38;5.03;;;4.10;;
40981;SDS011;26708;50.304;19.028;2022-07-03T14:52:39;9.50;;;4.05;;
40981;SDS011;26708;50.304;19.028;2022-07-03T14:55:40;5.63;;;4.03;;
40981;SDS011;26708;50.304;19.028;2022-07-03T14:58:41;4.97;;;3.75;;
40981;SDS011;26708;50.304;19.028;2022-07-03T15:01:45;6.57;;;4.50;;
40981;SDS011;26708;50.304;19.028;2022-07-03T15:05:02;4.65;;;3.72;;
40981;SDS011;26708;50.304;19.028;2022-07-03T15:15:01;5.25;;;4.15;;
40981;SDS011;26708;50.304;19.028;2022-07-03T15:18:02;6.65;;;4.05;;
40981;SDS011;26708;50.304;19.028;2022-07-03T15:21:04;4.85;;;3.90;;
40981;SDS011;26708;50.304;19.028;2022-07-03T15:24:05;5.75;;;4.03;;
40981;SDS011;26708;50.304;19.028;2022-07-03T15:27:07;6.60;;;4.15;;
40981;SDS011;26708;50.304;19.028;2022-07-03T15:30:08;4.60;;;4.10;;
40981;SDS011;26708;50.304;19.028;2022-07-03T15:33:10;10.50;;;4.40;;
40981;SDS011;26708;50.304;19.028;2022-07-03T15:36:11;4.75;;;4.30;;
40981;SDS011;26708;50.304;19.028;2022-07-03T15:39:36;8.38;;;3.78;;
40981;SDS011;26708;50.304;19.028;2022-07-03T15:45:56;5.60;;;4.30;;
40981;SDS011;26708;50.304;19.028;2022-07-03T15:52:13;5.50;;;4.25;;
40981;SDS011;26708;50.304;19.028;2022-07-03T15:55:19;6.85;;;4.00;;
40981;SDS011;26708;50.304;19.028;2022-07-03T15:58:26;7.07;;;4.30;;
40981;SDS011;26708;50.304;19.028;2022-07-03T16:01:33;5.18;;;3.72;;
40981;SDS011;26708;50.304;19.028;2022-07-03T16:05:04;4.85;;;4.10;;
40981;SDS011;26708;50.304;19.028;2022-07-03T16:08:14;6.25;;;4.05;;
40981;SDS011;26708;50.304;19.028;2022-07-03T16:11:17;6.82;;;3.75;;
40981;SDS011;26708;50.304;19.028;2022-07-03T16:14:18;6.45;;;4.03;;
40981;SDS011;26708;50.304;19.028;2022-07-03T16:17:21;4.47;;;3.83;;
40981;SDS011;26708;50.304;19.028;2022-07-03T16:20:23;7.85;;;4.38;;
40981;SDS011;26708;50.304;19.028;2022-07-03T16:23:26;6.03;;;4.35;;
40981;SDS011;26708;50.304;19.028;2022-07-03T16:26:29;6.68;;;4.60;;
40981;SDS011;26708;50.304;19.028;2022-07-03T16:29:30;4.63;;;4.00;;
40981;SDS011;26708;50.304;19.028;2022-07-03T16:32:35;5.72;;;4.53;;
40981;SDS011;26708;50.304;19.028;2022-07-03T16:35:45;6.80;;;4.43;;
40981;SDS011;26708;50.304;19.028;2022-07-03T16:38:57;6.20;;;4.20;;
40981;SDS011;26708;50.304;19.028;2022-07-03T16:42:03;6.68;;;4.47;;
40981;SDS011;26708;50.304;19.028;2022-07-03T16:45:06;5.15;;;3.97;;
40981;SDS011;26708;50.304;19.028;2022-07-03T16:48:10;4.65;;;4.20;;
40981;SDS011;26708;50.304;19.028;2022-07-03T16:51:13;7.82;;;4.05;;
40981;SDS011;26708;50.304;19.028;2022-07-03T16:54:15;5.25;;;3.85;;
40981;SDS011;26708;50.304;19.028;2022-07-03T16:57:16;8.45;;;4.28;;
40981;SDS011;26708;50.304;19.028;2022-07-03T17:00:21;7.00;;;4.35;;
40981;SDS011;26708;50.304;19.028;2022-07-03T17:03:26;6.25;;;4.10;;
40981;SDS011;26708;50.304;19.028;2022-07-03T17:06:27;6.13;;;4.25;;
40981;SDS011;26708;50.304;19.028;2022-07-03T17:09:28;11.93;;;4.68;;
40981;SDS011;26708;50.304;19.028;2022-07-03T17:12:32;5.30;;;4.40;;
40981;SDS011;26708;50.304;19.028;2022-07-03T17:15:34;8.90;;;4.25;;
40981;SDS011;26708;50.304;19.028;2022-07-03T17:18:49;6.40;;;4.47;;
40981;SDS011;26708;50.304;19.028;2022-07-03T17:21:51;8.38;;;4.70;;
40981;SDS011;26708;50.304;19.028;2022-07-03T17:24:53;6.43;;;4.50;;
40981;SDS011;26708;50.304;19.028;2022-07-03T17:27:58;9.57;;;4.22;;
40981;SDS011;26708;50.304;19.028;2022-07-03T17:31:04;8.05;;;4.32;;
40981;SDS011;26708;50.304;19.028;2022-07-03T17:34:11;5.97;;;4.75;;
40981;SDS011;26708;50.304;19.028;2022-07-03T17:37:22;7.47;;;4.38;;
40981;SDS011;26708;50.304;19.028;2022-07-03T17:40:24;6.32;;;4.20;;
40981;SDS011;26708;50.304;19.028;2022-07-03T17:43:25;5.32;;;3.58;;
40981;SDS011;26708;50.304;19.028;2022-07-03T17:46:27;8.13;;;4.28;;
40981;SDS011;26708;50.304;19.028;2022-07-03T17:49:28;4.43;;;4.00;;
40981;SDS011;26708;50.304;19.028;2022-07-03T17:52:32;7.18;;;4.20;;
40981;SDS011;26708;50.304;19.028;2022-07-03T17:55:33;6.85;;;4.28;;
40981;SDS011;26708;50.304;19.028;2022-07-03T17:58:37;4.07;;;3.67;;
40981;SDS011;26708;50.304;19.028;2022-07-03T18:04:41;4.82;;;3.75;;
40981;SDS011;26708;50.304;19.028;2022-07-03T18:07:46;5.90;;;4.22;;
40981;SDS011;26708;50.304;19.028;2022-07-03T18:17:53;5.30;;;4.38;;
40981;SDS011;26708;50.304;19.028;2022-07-03T18:20:59;6.45;;;3.95;;
40981;SDS011;26708;50.304;19.028;2022-07-03T18:24:00;8.00;;;4.75;;
40981;SDS011;26708;50.304;19.028;2022-07-03T18:27:06;5.57;;;4.35;;
40981;SDS011;26708;50.304;19.028;2022-07-03T18:30:08;4.65;;;4.00;;
40981;SDS011;26708;50.304;19.028;2022-07-03T18:33:11;9.80;;;4.18;;
40981;SDS011;26708;50.304;19.028;2022-07-03T18:36:13;7.93;;;4.30;;
40981;SDS011;26708;50.304;19.028;2022-07-03T18:39:15;6.63;;;4.40;;
40981;SDS011;26708;50.304;19.028;2022-07-03T18:42:18;8.63;;;4.80;;
40981;SDS011;26708;50.304;19.028;2022-07-03T18:45:20;6.57;;;4.88;;
40981;SDS011;26708;50.304;19.028;2022-07-03T18:48:20;6.78;;;5.93;;
40981;SDS011;26708;50.304;19.028;2022-07-03T18:51:22;7.45;;;5.20;;
40981;SDS011;26708;50.304;19.028;2022-07-03T18:54:39;7.60;;;4.65;;
40981;SDS011;26708;50.304;19.028;2022-07-03T18:57:57;8.95;;;4.93;;
40981;SDS011;26708;50.304;19.028;2022-07-03T19:01:05;8.25;;;4.78;;
40981;SDS011;26708;50.304;19.028;2022-07-03T19:10:49;7.28;;;5.03;;
40981;SDS011;26708;50.304;19.028;2022-07-03T19:14:09;6.80;;;4.85;;
40981;SDS011;26708;50.304;19.028;2022-07-03T19:17:11;8.50;;;4.60;;
40981;SDS011;26708;50.304;19.028;2022-07-03T19:20:14;6.50;;;5.30;;
40981;SDS011;26708;50.304;19.028;2022-07-03T19:23:16;8.90;;;4.68;;